sensor_id;sensor_type;location;lat;lon;timestamp;temperature;humidity
35541;DHT22;21650;48.840;9.162;2023-05-19T00:01:39;12.20;99.20
35541;DHT22;21650;48.840;9.162;2023-05-19T00:04:08;12.10;98.90
35541;DHT22;21650;48.840;9.162;2023-05-19T00:06:34;12.10;98.70
35541;DHT22;21650;48.840;9.162;2023-05-19T00:09:09;12.00;98.90
35541;DHT22;21650;48.840;9.162;2023-05-19T00:11:37;11.90;98.90
35541;DHT22;21650;48.840;9.162;2023-05-19T00:14:06;11.80;99.00
35541;DHT22;21650;48.840;9.162;2023-05-19T00:16:32;11.80;99.40
35541;DHT22;21650;48.840;9.162;2023-05-19T00:18:59;11.80;99.70
35541;DHT22;21650;48.840;9.162;2023-05-19T00:21:25;11.80;99.30
35541;DHT22;21650;48.840;9.162;2023-05-19T00:23:51;11.80;99.80
35541;DHT22;21650;48.840;9.162;2023-05-19T00:26:17;11.90;99.50
35541;DHT22;21650;48.840;9.162;2023-05-19T00:28:42;11.70;99.60
35541;DHT22;21650;48.840;9.162;2023-05-19T00:31:08;11.80;99.90
35541;DHT22;21650;48.840;9.162;2023-05-19T00:33:34;11.80;99.80
35541;DHT22;21650;48.840;9.162;2023-05-19T00:36:03;11.70;99.80
35541;DHT22;21650;48.840;9.162;2023-05-19T00:38:33;11.80;99.70
35541;DHT22;21650;48.840;9.162;2023-05-19T00:41:00;11.80;99.90
35541;DHT22;21650;48.840;9.162;2023-05-19T00:43:26;11.90;99.90
35541;DHT22;21650;48.840;9.162;2023-05-19T00:45:52;12.00;99.90
35541;DHT22;21650;48.840;9.162;2023-05-19T00:48:18;11.90;99.90
35541;DHT22;21650;48.840;9.162;2023-05-19T00:50:44;12.00;99.90
35541;DHT22;21650;48.840;9.162;2023-05-19T00:53:12;11.90;99.90
35541;DHT22;21650;48.840;9.162;2023-05-19T00:55:39;11.90;99.90
35541;DHT22;21650;48.840;9.162;2023-05-19T00:58:06;11.80;99.90
35541;DHT22;21650;48.840;9.162;2023-05-19T01:00:33;11.80;99.90
35541;DHT22;21650;48.840;9.162;2023-05-19T01:02:59;11.70;99.90
35541;DHT22;21650;48.840;9.162;2023-05-19T01:05:25;11.70;99.90
35541;DHT22;21650;48.840;9.162;2023-05-19T01:07:51;11.70;99.90
35541;DHT22;21650;48.840;9.162;2023-05-19T01:10:20;11.70;99.90
35541;DHT22;21650;48.840;9.162;2023-05-19T01:12:46;11.70;99.90
35541;DHT22;21650;48.840;9.162;2023-05-19T01:15:12;11.70;99.90
35541;DHT22;21650;48.840;9.162;2023-05-19T01:17:52;11.70;99.90
35541;DHT22;21650;48.840;9.162;2023-05-19T01:20:27;11.70;99.90
35541;DHT22;21650;48.840;9.162;2023-05-19T01:23:29;11.60;99.90
35541;DHT22;21650;48.840;9.162;2023-05-19T01:26:27;11.60;99.90
35541;DHT22;21650;48.840;9.162;2023-05-19T01:29:36;11.60;99.90
35541;DHT22;21650;48.840;9.162;2023-05-19T01:32:05;11.60;99.90
35541;DHT22;21650;48.840;9.162;2023-05-19T01:34:32;11.60;99.90
35541;DHT22;21650;48.840;9.162;2023-05-19T01:37:00;11.70;99.90
35541;DHT22;21650;48.840;9.162;2023-05-19T01:39:26;11.60;99.90
35541;DHT22;21650;48.840;9.162;2023-05-19T01:41:53;11.70;99.90
35541;DHT22;21650;48.840;9.162;2023-05-19T01:44:19;11.60;99.90
35541;DHT22;21650;48.840;9.162;2023-05-19T01:46:47;11.60;99.90
35541;DHT22;21650;48.840;9.162;2023-05-19T01:49:13;11.60;99.90
35541;DHT22;21650;48.840;9.162;2023-05-19T01:51:40;11.60;99.90
35541;DHT22;21650;48.840;9.162;2023-05-19T01:54:05;11.60;99.90
35541;DHT22;21650;48.840;9.162;2023-05-19T01:56:45;11.70;99.90
35541;DHT22;21650;48.840;9.162;2023-05-19T01:59:41;11.70;99.90
35541;DHT22;21650;48.840;9.162;2023-05-19T02:02:32;11.50;99.90
35541;DHT22;21650;48.840;9.162;2023-05-19T02:05:08;11.50;99.90
35541;DHT22;21650;48.840;9.162;2023-05-19T02:07:49;11.50;99.90
35541;DHT22;21650;48.840;9.162;2023-05-19T02:10:24;11.50;99.90
35541;DHT22;21650;48.840;9.162;2023-05-19T02:12:52;11.40;99.90
35541;DHT22;21650;48.840;9.162;2023-05-19T02:15:25;11.40;99.90
35541;DHT22;21650;48.840;9.162;2023-05-19T02:17:52;11.30;99.90
35541;DHT22;21650;48.840;9.162;2023-05-19T02:20:20;11.20;99.90
35541;DHT22;21650;48.840;9.162;2023-05-19T02:22:48;11.20;99.90
35541;DHT22;21650;48.840;9.162;2023-05-19T02:25:14;11.20;99.90
35541;DHT22;21650;48.840;9.162;2023-05-19T02:27:40;11.30;99.90
35541;DHT22;21650;48.840;9.162;2023-05-19T02:30:07;11.30;99.90
35541;DHT22;21650;48.840;9.162;2023-05-19T02:32:33;11.30;99.90
35541;DHT22;21650;48.840;9.162;2023-05-19T02:34:59;11.30;99.90
35541;DHT22;21650;48.840;9.162;2023-05-19T02:37:24;11.30;99.90
35541;DHT22;21650;48.840;9.162;2023-05-19T02:39:53;11.10;99.90
35541;DHT22;21650;48.840;9.162;2023-05-19T02:44:59;11.20;99.90
35541;DHT22;21650;48.840;9.162;2023-05-19T02:47:25;11.20;99.90
35541;DHT22;21650;48.840;9.162;2023-05-19T02:49:51;11.10;99.90
35541;DHT22;21650;48.840;9.162;2023-05-19T02:52:16;11.20;99.90
35541;DHT22;21650;48.840;9.162;2023-05-19T02:54:42;11.20;99.90
35541;DHT22;21650;48.840;9.162;2023-05-19T02:57:07;11.20;99.90
35541;DHT22;21650;48.840;9.162;2023-05-19T02:59:33;11.30;99.90
35541;DHT22;21650;48.840;9.162;2023-05-19T03:02:00;11.30;99.90
35541;DHT22;21650;48.840;9.162;2023-05-19T03:04:26;11.20;99.90
35541;DHT22;21650;48.840;9.162;2023-05-19T03:06:52;11.30;99.90
35541;DHT22;21650;48.840;9.162;2023-05-19T03:09:19;11.20;99.90
35541;DHT22;21650;48.840;9.162;2023-05-19T03:11:44;11.20;99.90
35541;DHT22;21650;48.840;9.162;2023-05-19T03:14:10;11.10;99.90
35541;DHT22;21650;48.840;9.162;2023-05-19T03:16:39;11.10;99.90
35541;DHT22;21650;48.840;9.162;2023-05-19T03:19:08;11.10;99.90
35541;DHT22;21650;48.840;9.162;2023-05-19T03:21:33;11.00;99.90
35541;DHT22;21650;48.840;9.162;2023-05-19T03:24:00;11.00;99.90
35541;DHT22;21650;48.840;9.162;2023-05-19T03:26:25;11.00;99.90
35541;DHT22;21650;48.840;9.162;2023-05-19T03:28:51;10.90;99.90
35541;DHT22;21650;48.840;9.162;2023-05-19T03:31:17;11.00;99.90
35541;DHT22;21650;48.840;9.162;2023-05-19T03:33:43;11.10;99.90
35541;DHT22;21650;48.840;9.162;2023-05-19T03:36:08;11.00;99.90
35541;DHT22;21650;48.840;9.162;2023-05-19T03:38:34;11.00;99.90
35541;DHT22;21650;48.840;9.162;2023-05-19T03:41:00;11.00;99.90
35541;DHT22;21650;48.840;9.162;2023-05-19T03:43:25;11.00;99.90
35541;DHT22;21650;48.840;9.162;2023-05-19T03:45:51;10.90;99.90
35541;DHT22;21650;48.840;9.162;2023-05-19T03:48:17;11.00;99.90
35541;DHT22;21650;48.840;9.162;2023-05-19T03:50:43;10.90;99.90
35541;DHT22;21650;48.840;9.162;2023-05-19T03:53:09;10.80;99.90
35541;DHT22;21650;48.840;9.162;2023-05-19T03:55:34;10.90;99.90
35541;DHT22;21650;48.840;9.162;2023-05-19T03:58:01;10.80;99.90
35541;DHT22;21650;48.840;9.162;2023-05-19T04:00:27;10.80;99.90
35541;DHT22;21650;48.840;9.162;2023-05-19T04:02:53;10.80;99.90
35541;DHT22;21650;48.840;9.162;2023-05-19T04:05:18;10.80;99.90
35541;DHT22;21650;48.840;9.162;2023-05-19T04:07:44;10.80;99.90
35541;DHT22;21650;48.840;9.162;2023-05-19T04:10:11;10.80;99.90
35541;DHT22;21650;48.840;9.162;2023-05-19T04:12:37;10.70;99.90
35541;DHT22;21650;48.840;9.162;2023-05-19T04:15:03;10.80;99.90
35541;DHT22;21650;48.840;9.162;2023-05-19T04:17:30;10.80;99.90
35541;DHT22;21650;48.840;9.162;2023-05-19T04:19:56;10.90;99.90
35541;DHT22;21650;48.840;9.162;2023-05-19T04:22:21;10.80;99.90
35541;DHT22;21650;48.840;9.162;2023-05-19T04:24:47;10.70;99.90
35541;DHT22;21650;48.840;9.162;2023-05-19T04:27:13;10.80;99.90
35541;DHT22;21650;48.840;9.162;2023-05-19T04:29:40;10.80;99.90
35541;DHT22;21650;48.840;9.162;2023-05-19T04:32:06;10.80;99.90
35541;DHT22;21650;48.840;9.162;2023-05-19T04:34:33;10.70;99.90
35541;DHT22;21650;48.840;9.162;2023-05-19T04:37:00;10.60;99.90
35541;DHT22;21650;48.840;9.162;2023-05-19T04:39:25;10.60;99.90
35541;DHT22;21650;48.840;9.162;2023-05-19T04:41:51;10.80;99.90
35541;DHT22;21650;48.840;9.162;2023-05-19T04:44:18;10.60;99.90
35541;DHT22;21650;48.840;9.162;2023-05-19T04:46:44;10.70;99.90
35541;DHT22;21650;48.840;9.162;2023-05-19T04:49:10;10.60;99.90
35541;DHT22;21650;48.840;9.162;2023-05-19T04:51:39;10.60;99.90
35541;DHT22;21650;48.840;9.162;2023-05-19T04:54:08;10.60;99.90
35541;DHT22;21650;48.840;9.162;2023-05-19T04:56:35;10.70;99.90
35541;DHT22;21650;48.840;9.162;2023-05-19T04:59:00;10.60;99.90
35541;DHT22;21650;48.840;9.162;2023-05-19T05:01:26;10.60;99.90
35541;DHT22;21650;48.840;9.162;2023-05-19T05:03:53;10.60;99.90
35541;DHT22;21650;48.840;9.162;2023-05-19T05:06:20;10.70;99.90
35541;DHT22;21650;48.840;9.162;2023-05-19T05:08:47;10.80;99.90
35541;DHT22;21650;48.840;9.162;2023-05-19T05:11:13;10.90;99.90
35541;DHT22;21650;48.840;9.162;2023-05-19T05:13:39;11.00;99.90
35541;DHT22;21650;48.840;9.162;2023-05-19T05:16:05;11.00;99.90
35541;DHT22;21650;48.840;9.162;2023-05-19T05:18:33;11.10;99.90
35541;DHT22;21650;48.840;9.162;2023-05-19T05:20:59;10.90;99.90
35541;DHT22;21650;48.840;9.162;2023-05-19T05:23:25;11.20;99.90
35541;DHT22;21650;48.840;9.162;2023-05-19T05:25:51;11.30;99.90
35541;DHT22;21650;48.840;9.162;2023-05-19T05:28:17;11.50;99.90
35541;DHT22;21650;48.840;9.162;2023-05-19T05:30:43;11.70;99.90
35541;DHT22;21650;48.840;9.162;2023-05-19T05:33:09;11.80;99.90
35541;DHT22;21650;48.840;9.162;2023-05-19T05:35:35;11.90;99.90
35541;DHT22;21650;48.840;9.162;2023-05-19T05:38:01;12.00;99.90
35541;DHT22;21650;48.840;9.162;2023-05-19T05:40:27;12.00;99.90
35541;DHT22;21650;48.840;9.162;2023-05-19T05:42:53;11.90;99.90
35541;DHT22;21650;48.840;9.162;2023-05-19T05:45:21;12.10;99.90
35541;DHT22;21650;48.840;9.162;2023-05-19T05:47:47;12.00;99.90
35541;DHT22;21650;48.840;9.162;2023-05-19T05:50:13;12.10;99.90
35541;DHT22;21650;48.840;9.162;2023-05-19T05:52:40;12.20;99.90
35541;DHT22;21650;48.840;9.162;2023-05-19T05:55:07;12.20;99.90
35541;DHT22;21650;48.840;9.162;2023-05-19T05:57:33;12.10;99.90
35541;DHT22;21650;48.840;9.162;2023-05-19T06:00:02;12.30;99.90
35541;DHT22;21650;48.840;9.162;2023-05-19T06:02:30;12.50;99.90
35541;DHT22;21650;48.840;9.162;2023-05-19T06:04:55;12.60;99.90
35541;DHT22;21650;48.840;9.162;2023-05-19T06:07:21;12.50;99.90
35541;DHT22;21650;48.840;9.162;2023-05-19T06:09:47;12.50;99.90
35541;DHT22;21650;48.840;9.162;2023-05-19T06:12:12;12.50;99.90
35541;DHT22;21650;48.840;9.162;2023-05-19T06:14:38;12.60;99.90
35541;DHT22;21650;48.840;9.162;2023-05-19T06:17:03;12.50;99.90
35541;DHT22;21650;48.840;9.162;2023-05-19T06:19:29;12.50;99.90
35541;DHT22;21650;48.840;9.162;2023-05-19T06:21:55;12.50;99.90
35541;DHT22;21650;48.840;9.162;2023-05-19T06:24:20;12.70;99.90
35541;DHT22;21650;48.840;9.162;2023-05-19T06:26:46;12.80;99.90
35541;DHT22;21650;48.840;9.162;2023-05-19T06:29:12;12.80;99.90
35541;DHT22;21650;48.840;9.162;2023-05-19T06:31:37;12.90;99.90
35541;DHT22;21650;48.840;9.162;2023-05-19T06:34:03;13.10;99.90
35541;DHT22;21650;48.840;9.162;2023-05-19T06:36:28;13.10;99.90
35541;DHT22;21650;48.840;9.162;2023-05-19T06:38:54;13.20;99.90
35541;DHT22;21650;48.840;9.162;2023-05-19T06:41:20;13.40;99.90
35541;DHT22;21650;48.840;9.162;2023-05-19T06:43:46;13.40;99.90
35541;DHT22;21650;48.840;9.162;2023-05-19T06:46:11;13.40;99.90
35541;DHT22;21650;48.840;9.162;2023-05-19T06:48:37;13.50;99.90
35541;DHT22;21650;48.840;9.162;2023-05-19T06:51:03;13.40;99.90
35541;DHT22;21650;48.840;9.162;2023-05-19T06:53:29;13.40;99.90
35541;DHT22;21650;48.840;9.162;2023-05-19T06:55:55;13.40;99.90
35541;DHT22;21650;48.840;9.162;2023-05-19T06:58:21;13.30;99.90
35541;DHT22;21650;48.840;9.162;2023-05-19T07:00:46;13.20;99.90
35541;DHT22;21650;48.840;9.162;2023-05-19T07:03:12;13.20;99.90
35541;DHT22;21650;48.840;9.162;2023-05-19T07:05:37;13.30;99.90
35541;DHT22;21650;48.840;9.162;2023-05-19T07:08:03;13.50;99.90
35541;DHT22;21650;48.840;9.162;2023-05-19T07:10:29;13.50;99.90
35541;DHT22;21650;48.840;9.162;2023-05-19T07:12:55;13.50;99.90
35541;DHT22;21650;48.840;9.162;2023-05-19T07:15:22;13.60;99.90
35541;DHT22;21650;48.840;9.162;2023-05-19T07:17:47;13.70;99.90
35541;DHT22;21650;48.840;9.162;2023-05-19T07:20:13;13.80;99.90
35541;DHT22;21650;48.840;9.162;2023-05-19T07:22:39;13.90;99.90
35541;DHT22;21650;48.840;9.162;2023-05-19T07:25:06;13.90;99.90
35541;DHT22;21650;48.840;9.162;2023-05-19T07:27:32;14.00;99.90
35541;DHT22;21650;48.840;9.162;2023-05-19T07:29:57;14.10;99.90
35541;DHT22;21650;48.840;9.162;2023-05-19T07:32:23;14.10;99.90
35541;DHT22;21650;48.840;9.162;2023-05-19T07:34:49;14.00;99.90
35541;DHT22;21650;48.840;9.162;2023-05-19T07:37:14;13.90;99.90
35541;DHT22;21650;48.840;9.162;2023-05-19T07:39:41;13.80;99.90
35541;DHT22;21650;48.840;9.162;2023-05-19T07:42:06;13.90;99.90
35541;DHT22;21650;48.840;9.162;2023-05-19T07:44:32;13.90;99.90
35541;DHT22;21650;48.840;9.162;2023-05-19T07:46:59;13.80;99.90
35541;DHT22;21650;48.840;9.162;2023-05-19T07:49:25;13.80;99.90
35541;DHT22;21650;48.840;9.162;2023-05-19T07:51:50;13.90;99.90
35541;DHT22;21650;48.840;9.162;2023-05-19T07:54:16;14.00;99.90
35541;DHT22;21650;48.840;9.162;2023-05-19T07:56:41;14.00;99.90
35541;DHT22;21650;48.840;9.162;2023-05-19T07:59:07;14.00;99.90
35541;DHT22;21650;48.840;9.162;2023-05-19T08:01:33;14.00;99.90
35541;DHT22;21650;48.840;9.162;2023-05-19T08:03:58;14.00;99.90
35541;DHT22;21650;48.840;9.162;2023-05-19T08:06:24;14.10;99.90
35541;DHT22;21650;48.840;9.162;2023-05-19T08:08:50;14.00;99.90
35541;DHT22;21650;48.840;9.162;2023-05-19T08:11:16;14.20;99.90
35541;DHT22;21650;48.840;9.162;2023-05-19T08:13:42;14.20;99.90
35541;DHT22;21650;48.840;9.162;2023-05-19T08:16:07;14.20;99.90
35541;DHT22;21650;48.840;9.162;2023-05-19T08:18:33;14.00;99.90
35541;DHT22;21650;48.840;9.162;2023-05-19T08:20:59;14.10;99.90
35541;DHT22;21650;48.840;9.162;2023-05-19T08:23:24;14.00;99.90
35541;DHT22;21650;48.840;9.162;2023-05-19T08:25:50;13.90;99.90
35541;DHT22;21650;48.840;9.162;2023-05-19T08:28:15;13.80;99.90
35541;DHT22;21650;48.840;9.162;2023-05-19T08:30:41;13.70;99.90
35541;DHT22;21650;48.840;9.162;2023-05-19T08:33:06;13.80;99.90
35541;DHT22;21650;48.840;9.162;2023-05-19T08:35:32;13.90;99.90
35541;DHT22;21650;48.840;9.162;2023-05-19T08:37:58;14.00;99.90
35541;DHT22;21650;48.840;9.162;2023-05-19T08:40:24;14.00;99.90
35541;DHT22;21650;48.840;9.162;2023-05-19T08:42:52;14.00;99.90
35541;DHT22;21650;48.840;9.162;2023-05-19T08:45:18;14.10;99.90
35541;DHT22;21650;48.840;9.162;2023-05-19T08:47:47;14.10;99.90
35541;DHT22;21650;48.840;9.162;2023-05-19T08:50:20;14.00;99.90
35541;DHT22;21650;48.840;9.162;2023-05-19T08:53:07;14.00;99.90
35541;DHT22;21650;48.840;9.162;2023-05-19T08:55:50;14.00;99.90
35541;DHT22;21650;48.840;9.162;2023-05-19T08:58:20;14.00;99.90
35541;DHT22;21650;48.840;9.162;2023-05-19T09:00:47;14.00;99.90
35541;DHT22;21650;48.840;9.162;2023-05-19T09:03:13;14.10;99.90
35541;DHT22;21650;48.840;9.162;2023-05-19T09:05:40;14.20;99.90
35541;DHT22;21650;48.840;9.162;2023-05-19T09:08:06;14.20;99.90
35541;DHT22;21650;48.840;9.162;2023-05-19T09:10:32;14.20;99.90
35541;DHT22;21650;48.840;9.162;2023-05-19T09:12:58;14.20;99.90
35541;DHT22;21650;48.840;9.162;2023-05-19T09:15:26;14.20;99.90
35541;DHT22;21650;48.840;9.162;2023-05-19T09:18:12;14.20;99.90
35541;DHT22;21650;48.840;9.162;2023-05-19T09:20:41;14.30;99.90
35541;DHT22;21650;48.840;9.162;2023-05-19T09:23:15;14.30;99.90
35541;DHT22;21650;48.840;9.162;2023-05-19T09:25:49;14.30;99.90
35541;DHT22;21650;48.840;9.162;2023-05-19T09:30:48;14.20;99.90
35541;DHT22;21650;48.840;9.162;2023-05-19T09:33:18;14.10;99.90
35541;DHT22;21650;48.840;9.162;2023-05-19T09:35:47;14.20;99.90
35541;DHT22;21650;48.840;9.162;2023-05-19T09:38:36;14.20;99.90
35541;DHT22;21650;48.840;9.162;2023-05-19T09:41:03;14.20;99.90
35541;DHT22;21650;48.840;9.162;2023-05-19T09:43:30;14.30;99.90
35541;DHT22;21650;48.840;9.162;2023-05-19T09:46:04;14.40;99.90
35541;DHT22;21650;48.840;9.162;2023-05-19T09:48:30;14.40;99.90
35541;DHT22;21650;48.840;9.162;2023-05-19T09:50:56;14.50;99.90
35541;DHT22;21650;48.840;9.162;2023-05-19T09:53:23;14.40;99.90
35541;DHT22;21650;48.840;9.162;2023-05-19T09:55:56;14.50;99.90
35541;DHT22;21650;48.840;9.162;2023-05-19T09:58:25;14.60;99.90
35541;DHT22;21650;48.840;9.162;2023-05-19T10:00:51;14.70;99.90
35541;DHT22;21650;48.840;9.162;2023-05-19T10:03:22;14.70;99.90
35541;DHT22;21650;48.840;9.162;2023-05-19T10:05:49;14.80;99.90
35541;DHT22;21650;48.840;9.162;2023-05-19T10:08:16;14.80;99.90
35541;DHT22;21650;48.840;9.162;2023-05-19T10:10:44;14.80;99.90
35541;DHT22;21650;48.840;9.162;2023-05-19T10:13:11;14.90;99.90
35541;DHT22;21650;48.840;9.162;2023-05-19T10:15:40;14.90;99.90
35541;DHT22;21650;48.840;9.162;2023-05-19T10:18:08;15.00;99.90
35541;DHT22;21650;48.840;9.162;2023-05-19T10:20:34;14.90;99.90
35541;DHT22;21650;48.840;9.162;2023-05-19T10:22:59;14.70;99.90
35541;DHT22;21650;48.840;9.162;2023-05-19T10:25:27;14.60;99.90
35541;DHT22;21650;48.840;9.162;2023-05-19T10:27:56;14.70;99.90
35541;DHT22;21650;48.840;9.162;2023-05-19T10:30:42;14.80;99.90
35541;DHT22;21650;48.840;9.162;2023-05-19T10:33:12;14.90;99.90
35541;DHT22;21650;48.840;9.162;2023-05-19T10:35:53;14.70;99.90
35541;DHT22;21650;48.840;9.162;2023-05-19T10:38:33;14.70;99.90
35541;DHT22;21650;48.840;9.162;2023-05-19T10:41:12;14.80;99.90
35541;DHT22;21650;48.840;9.162;2023-05-19T10:43:54;14.70;99.90
35541;DHT22;21650;48.840;9.162;2023-05-19T10:46:28;14.80;99.90
35541;DHT22;21650;48.840;9.162;2023-05-19T10:48:54;14.90;99.90
35541;DHT22;21650;48.840;9.162;2023-05-19T10:51:20;15.10;99.90
35541;DHT22;21650;48.840;9.162;2023-05-19T10:53:46;15.20;99.90
35541;DHT22;21650;48.840;9.162;2023-05-19T10:56:29;15.10;99.90
35541;DHT22;21650;48.840;9.162;2023-05-19T10:58:57;15.20;99.90
35541;DHT22;21650;48.840;9.162;2023-05-19T11:01:29;15.30;99.90
35541;DHT22;21650;48.840;9.162;2023-05-19T11:03:55;15.20;99.90
35541;DHT22;21650;48.840;9.162;2023-05-19T11:06:29;15.20;99.90
35541;DHT22;21650;48.840;9.162;2023-05-19T11:11:53;15.10;99.90
35541;DHT22;21650;48.840;9.162;2023-05-19T11:14:37;15.00;99.90
35541;DHT22;21650;48.840;9.162;2023-05-19T11:17:12;14.90;99.90
35541;DHT22;21650;48.840;9.162;2023-05-19T11:19:38;14.90;99.90
35541;DHT22;21650;48.840;9.162;2023-05-19T11:22:10;15.00;99.90
35541;DHT22;21650;48.840;9.162;2023-05-19T11:24:38;15.00;99.90
35541;DHT22;21650;48.840;9.162;2023-05-19T11:27:25;15.20;99.90
35541;DHT22;21650;48.840;9.162;2023-05-19T11:29:52;15.20;99.90
35541;DHT22;21650;48.840;9.162;2023-05-19T11:32:25;15.30;99.90
35541;DHT22;21650;48.840;9.162;2023-05-19T11:34:51;15.30;99.90
35541;DHT22;21650;48.840;9.162;2023-05-19T11:37:19;15.20;99.90
35541;DHT22;21650;48.840;9.162;2023-05-19T11:39:45;15.20;99.90
35541;DHT22;21650;48.840;9.162;2023-05-19T11:42:14;15.20;99.90
35541;DHT22;21650;48.840;9.162;2023-05-19T11:44:41;15.40;99.90
35541;DHT22;21650;48.840;9.162;2023-05-19T11:47:07;15.40;99.90
35541;DHT22;21650;48.840;9.162;2023-05-19T11:49:33;15.40;99.90
35541;DHT22;21650;48.840;9.162;2023-05-19T11:51:59;15.30;99.90
35541;DHT22;21650;48.840;9.162;2023-05-19T11:54:31;15.30;99.90
35541;DHT22;21650;48.840;9.162;2023-05-19T11:56:59;15.40;99.90
35541;DHT22;21650;48.840;9.162;2023-05-19T11:59:33;15.50;99.90
35541;DHT22;21650;48.840;9.162;2023-05-19T12:04:38;15.50;99.90
35541;DHT22;21650;48.840;9.162;2023-05-19T12:07:03;15.60;99.90
35541;DHT22;21650;48.840;9.162;2023-05-19T12:09:29;15.40;99.90
35541;DHT22;21650;48.840;9.162;2023-05-19T12:11:55;15.50;99.90
35541;DHT22;21650;48.840;9.162;2023-05-19T12:14:20;15.50;99.90
35541;DHT22;21650;48.840;9.162;2023-05-19T12:16:46;15.50;99.90
35541;DHT22;21650;48.840;9.162;2023-05-19T12:19:12;15.50;99.90
35541;DHT22;21650;48.840;9.162;2023-05-19T12:21:38;15.60;99.90
35541;DHT22;21650;48.840;9.162;2023-05-19T12:24:04;15.50;99.90
35541;DHT22;21650;48.840;9.162;2023-05-19T12:26:30;15.60;99.90
35541;DHT22;21650;48.840;9.162;2023-05-19T12:28:57;15.40;99.50
35541;DHT22;21650;48.840;9.162;2023-05-19T12:31:23;15.40;99.70
35541;DHT22;21650;48.840;9.162;2023-05-19T12:33:48;15.50;99.90
35541;DHT22;21650;48.840;9.162;2023-05-19T12:36:17;15.70;99.90
35541;DHT22;21650;48.840;9.162;2023-05-19T12:38:44;15.60;99.80
35541;DHT22;21650;48.840;9.162;2023-05-19T12:41:13;15.70;99.90
35541;DHT22;21650;48.840;9.162;2023-05-19T12:43:39;15.50;99.50
35541;DHT22;21650;48.840;9.162;2023-05-19T12:46:12;15.50;99.90
35541;DHT22;21650;48.840;9.162;2023-05-19T12:48:42;15.40;99.90
35541;DHT22;21650;48.840;9.162;2023-05-19T12:51:08;15.40;99.90
35541;DHT22;21650;48.840;9.162;2023-05-19T12:53:36;15.40;99.90
35541;DHT22;21650;48.840;9.162;2023-05-19T12:56:12;15.30;99.90
35541;DHT22;21650;48.840;9.162;2023-05-19T12:58:39;15.20;99.90
35541;DHT22;21650;48.840;9.162;2023-05-19T13:01:05;15.20;99.90
35541;DHT22;21650;48.840;9.162;2023-05-19T13:03:38;15.20;99.90
35541;DHT22;21650;48.840;9.162;2023-05-19T13:06:05;15.20;99.90
35541;DHT22;21650;48.840;9.162;2023-05-19T13:08:30;15.10;99.90
35541;DHT22;21650;48.840;9.162;2023-05-19T13:10:56;15.10;99.90
35541;DHT22;21650;48.840;9.162;2023-05-19T13:13:22;15.10;99.90
35541;DHT22;21650;48.840;9.162;2023-05-19T13:15:48;15.20;99.90
35541;DHT22;21650;48.840;9.162;2023-05-19T13:18:14;15.30;99.90
35541;DHT22;21650;48.840;9.162;2023-05-19T13:20:41;15.20;99.90
35541;DHT22;21650;48.840;9.162;2023-05-19T13:23:12;15.30;99.90
35541;DHT22;21650;48.840;9.162;2023-05-19T13:25:38;15.40;99.90
35541;DHT22;21650;48.840;9.162;2023-05-19T13:28:04;15.40;99.90
35541;DHT22;21650;48.840;9.162;2023-05-19T13:30:31;15.40;99.90
35541;DHT22;21650;48.840;9.162;2023-05-19T13:32:56;15.50;99.90
35541;DHT22;21650;48.840;9.162;2023-05-19T13:35:22;15.50;99.90
35541;DHT22;21650;48.840;9.162;2023-05-19T13:37:48;15.50;99.90
35541;DHT22;21650;48.840;9.162;2023-05-19T13:40:14;15.50;99.90
35541;DHT22;21650;48.840;9.162;2023-05-19T13:42:40;15.70;99.90
35541;DHT22;21650;48.840;9.162;2023-05-19T13:45:06;15.60;99.90
35541;DHT22;21650;48.840;9.162;2023-05-19T13:47:32;15.70;99.90
35541;DHT22;21650;48.840;9.162;2023-05-19T13:49:57;15.50;99.90
35541;DHT22;21650;48.840;9.162;2023-05-19T13:52:23;15.40;99.90
35541;DHT22;21650;48.840;9.162;2023-05-19T13:54:49;15.40;99.90
35541;DHT22;21650;48.840;9.162;2023-05-19T13:57:15;15.30;99.90
35541;DHT22;21650;48.840;9.162;2023-05-19T13:59:40;15.30;99.90
35541;DHT22;21650;48.840;9.162;2023-05-19T14:02:07;15.20;99.90
35541;DHT22;21650;48.840;9.162;2023-05-19T14:04:36;15.30;99.90
35541;DHT22;21650;48.840;9.162;2023-05-19T14:07:02;15.30;99.90
35541;DHT22;21650;48.840;9.162;2023-05-19T14:09:28;15.20;99.90
35541;DHT22;21650;48.840;9.162;2023-05-19T14:11:54;15.20;99.90
35541;DHT22;21650;48.840;9.162;2023-05-19T14:14:20;15.30;99.90
35541;DHT22;21650;48.840;9.162;2023-05-19T14:16:45;15.40;99.90
35541;DHT22;21650;48.840;9.162;2023-05-19T14:19:11;15.40;99.90
35541;DHT22;21650;48.840;9.162;2023-05-19T14:21:36;15.50;99.90
35541;DHT22;21650;48.840;9.162;2023-05-19T14:24:02;15.60;99.90
35541;DHT22;21650;48.840;9.162;2023-05-19T14:26:28;15.60;99.90
35541;DHT22;21650;48.840;9.162;2023-05-19T14:28:53;15.70;99.90
35541;DHT22;21650;48.840;9.162;2023-05-19T14:31:21;15.70;99.90
35541;DHT22;21650;48.840;9.162;2023-05-19T14:33:46;15.70;99.90
35541;DHT22;21650;48.840;9.162;2023-05-19T14:36:12;15.50;99.90
35541;DHT22;21650;48.840;9.162;2023-05-19T14:38:38;15.60;99.90
35541;DHT22;21650;48.840;9.162;2023-05-19T14:41:04;15.60;99.90
35541;DHT22;21650;48.840;9.162;2023-05-19T14:43:30;15.70;99.90
35541;DHT22;21650;48.840;9.162;2023-05-19T14:45:56;15.70;99.90
35541;DHT22;21650;48.840;9.162;2023-05-19T14:48:21;15.80;99.90
35541;DHT22;21650;48.840;9.162;2023-05-19T14:50:47;15.80;99.90
35541;DHT22;21650;48.840;9.162;2023-05-19T14:53:13;15.70;99.90
35541;DHT22;21650;48.840;9.162;2023-05-19T14:55:38;15.60;99.90
35541;DHT22;21650;48.840;9.162;2023-05-19T14:58:04;15.70;99.90
35541;DHT22;21650;48.840;9.162;2023-05-19T15:00:30;15.70;99.90
35541;DHT22;21650;48.840;9.162;2023-05-19T15:02:56;15.70;99.90
35541;DHT22;21650;48.840;9.162;2023-05-19T15:05:21;15.80;99.90
35541;DHT22;21650;48.840;9.162;2023-05-19T15:07:48;15.80;99.90
35541;DHT22;21650;48.840;9.162;2023-05-19T15:10:14;15.80;99.90
35541;DHT22;21650;48.840;9.162;2023-05-19T15:12:40;15.70;99.90
35541;DHT22;21650;48.840;9.162;2023-05-19T15:15:07;15.70;99.90
35541;DHT22;21650;48.840;9.162;2023-05-19T15:17:32;15.70;99.90
35541;DHT22;21650;48.840;9.162;2023-05-19T15:19:58;15.70;99.90
35541;DHT22;21650;48.840;9.162;2023-05-19T15:22:24;15.60;99.90
35541;DHT22;21650;48.840;9.162;2023-05-19T15:24:49;15.60;99.90
35541;DHT22;21650;48.840;9.162;2023-05-19T15:27:15;15.60;99.90
35541;DHT22;21650;48.840;9.162;2023-05-19T15:29:40;15.60;99.90
35541;DHT22;21650;48.840;9.162;2023-05-19T15:32:06;15.60;99.90
35541;DHT22;21650;48.840;9.162;2023-05-19T15:34:32;15.70;99.90
35541;DHT22;21650;48.840;9.162;2023-05-19T15:36:57;15.80;99.90
35541;DHT22;21650;48.840;9.162;2023-05-19T15:39:23;15.80;99.90
35541;DHT22;21650;48.840;9.162;2023-05-19T15:41:49;15.90;99.90
35541;DHT22;21650;48.840;9.162;2023-05-19T15:44:15;16.00;99.90